createdAt,value
2023-01-05T00:00:04.275Z,0.73
2023-01-05T00:03:06.511Z,1.00
2023-01-05T00:06:12.090Z,0.70
2023-01-05T00:09:16.750Z,1.27
2023-01-05T00:12:38.150Z,0.83
2023-01-05T00:15:59.011Z,0.70
2023-01-05T00:19:19.689Z,0.80
2023-01-05T00:22:39.047Z,0.70
2023-01-05T00:25:41.974Z,0.93
2023-01-05T00:28:43.839Z,0.90
2023-01-05T00:31:45.898Z,0.70
2023-01-05T00:34:47.853Z,0.60
2023-01-05T00:37:50.398Z,1.10
2023-01-05T00:40:52.329Z,0.90
2023-01-05T00:43:54.306Z,0.90
2023-01-05T00:46:56.298Z,0.60
2023-01-05T00:49:59.225Z,0.80
2023-01-05T00:53:01.125Z,1.20
2023-01-05T00:56:03.565Z,0.50
2023-01-05T00:59:05.592Z,0.70
2023-01-05T01:02:07.977Z,0.83
2023-01-05T01:05:10.360Z,1.00
2023-01-05T01:08:13.780Z,0.70
2023-01-05T01:11:16.764Z,0.90
2023-01-05T01:14:19.302Z,0.70
2023-01-05T01:17:21.228Z,0.80
2023-01-05T01:20:23.228Z,0.70
2023-01-05T01:23:25.821Z,1.20
2023-01-05T01:26:28.161Z,1.10
2023-01-05T01:29:31.072Z,0.93
2023-01-05T01:32:32.953Z,0.77
2023-01-05T01:35:38.130Z,0.80
2023-01-05T01:38:40.144Z,2.70
2023-01-05T01:41:42.272Z,0.60
2023-01-05T01:44:55.807Z,0.60
2023-01-05T01:47:59.552Z,0.70
2023-01-05T01:51:08.363Z,0.50
2023-01-05T01:54:13.630Z,0.60
2023-01-05T01:57:15.645Z,0.50
2023-01-05T02:00:18.326Z,0.50
2023-01-05T02:03:20.321Z,0.50
2023-01-05T02:06:22.261Z,0.70
2023-01-05T02:09:24.261Z,0.90
2023-01-05T02:12:38.591Z,1.47
2023-01-05T02:16:20.844Z,1.20
2023-01-05T02:19:47.577Z,1.07
2023-01-05T02:23:06.971Z,0.60
2023-01-05T02:26:27.921Z,0.60
2023-01-05T02:30:13.466Z,0.50
2023-01-05T02:33:33.368Z,0.60
2023-01-05T02:36:40.009Z,0.60
2023-01-05T02:39:48.716Z,0.50
2023-01-05T02:42:52.118Z,0.60
2023-01-05T02:45:54.173Z,0.50
2023-01-05T02:48:59.168Z,0.50
2023-01-05T02:52:02.373Z,0.57
2023-01-05T02:55:08.996Z,0.43
2023-01-05T02:58:48.602Z,0.30
2023-01-05T03:01:59.905Z,0.60
2023-01-05T03:05:15.706Z,0.60
2023-01-05T03:08:26.313Z,0.80
2023-01-05T03:11:55.792Z,0.80
2023-01-05T03:15:03.984Z,0.70
2023-01-05T03:18:08.746Z,0.70
2023-01-05T03:21:10.746Z,0.60
2023-01-05T03:24:31.837Z,0.80
2023-01-05T03:27:52.763Z,0.83
2023-01-05T03:31:18.882Z,0.80
2023-01-05T03:35:01.824Z,0.50
2023-01-05T03:38:18.303Z,0.63
2023-01-05T03:41:23.630Z,0.70
2023-01-05T03:44:25.625Z,0.63
2023-01-05T03:47:28.171Z,0.60
2023-01-05T03:50:30.068Z,0.50
2023-01-05T03:53:31.986Z,0.70
2023-01-05T03:56:33.874Z,0.80
2023-01-05T03:59:35.791Z,0.53
2023-01-05T04:02:38.384Z,0.60
2023-01-05T04:05:41.123Z,0.60
2023-01-05T04:08:43.085Z,0.70
2023-01-05T04:11:45.325Z,0.60
2023-01-05T04:14:47.222Z,0.60
2023-01-05T04:17:49.210Z,0.50
2023-01-05T04:20:51.088Z,0.90
2023-01-05T04:23:53.036Z,0.70
2023-01-05T04:26:54.972Z,0.70
2023-01-05T04:29:56.891Z,0.70
2023-01-05T04:32:58.823Z,0.60
2023-01-05T04:36:01.163Z,0.70
2023-01-05T04:39:03.171Z,0.63
2023-01-05T04:42:05.212Z,0.80
2023-01-05T04:45:07.718Z,1.00
2023-01-05T04:48:09.713Z,0.77
2023-01-05T04:51:11.641Z,0.90
2023-01-05T04:54:13.608Z,0.90
2023-01-05T04:57:15.520Z,0.70
2023-01-05T05:00:17.937Z,0.93
2023-01-05T05:03:20.507Z,0.80
2023-01-05T05:06:22.729Z,0.80
2023-01-05T05:09:25.208Z,0.60
2023-01-05T05:12:27.601Z,0.70
2023-01-05T05:15:29.531Z,0.67
2023-01-05T05:18:32.182Z,0.47
2023-01-05T05:21:34.071Z,0.87
2023-01-05T05:24:36.017Z,0.80
2023-01-05T05:27:37.868Z,1.00
2023-01-05T05:30:40.124Z,0.90
2023-01-05T05:33:42.036Z,0.87
2023-01-05T05:36:44.141Z,0.77
2023-01-05T05:39:45.968Z,0.97
2023-01-05T05:42:47.951Z,0.80
2023-01-05T05:45:50.904Z,0.73
2023-01-05T05:48:53.075Z,0.97
2023-01-05T05:51:55.008Z,0.83
2023-01-05T05:54:56.956Z,1.00
2023-01-05T05:57:58.840Z,0.80
2023-01-05T06:01:01.015Z,0.70
2023-01-05T06:04:02.868Z,0.83
2023-01-05T06:07:04.892Z,1.13
2023-01-05T06:10:07.922Z,1.20
2023-01-05T06:13:10.150Z,1.10
2023-01-05T06:16:12.187Z,1.00
2023-01-05T06:19:14.588Z,0.90
2023-01-05T06:22:16.498Z,0.90
2023-01-05T06:25:19.092Z,0.80
2023-01-05T06:28:21.030Z,0.90
2023-01-05T06:31:23.143Z,0.93
2023-01-05T06:34:25.154Z,1.00
2023-01-05T06:37:27.078Z,0.50
2023-01-05T06:40:28.983Z,0.90
2023-01-05T06:43:31.796Z,1.13
2023-01-05T06:46:33.929Z,0.50
2023-01-05T06:49:36.409Z,0.80
2023-01-05T06:52:42.962Z,0.70
2023-01-05T06:55:46.568Z,0.60
2023-01-05T06:58:48.497Z,0.60
2023-01-05T07:01:50.577Z,0.60
2023-01-05T07:04:52.603Z,0.53
2023-01-05T07:07:56.130Z,0.53
2023-01-05T07:10:57.962Z,0.60
2023-01-05T07:14:00.979Z,0.70
2023-01-05T07:17:02.948Z,0.60
2023-01-05T07:20:05.997Z,0.60
2023-01-05T07:23:07.934Z,0.60
2023-01-05T07:26:10.192Z,0.50
2023-01-05T07:29:12.097Z,0.70
2023-01-05T07:32:14.239Z,0.43
2023-01-05T07:35:16.269Z,0.70
2023-01-05T07:38:18.346Z,0.60
2023-01-05T07:41:20.221Z,0.40
2023-01-05T07:44:22.546Z,0.30
2023-01-05T07:47:25.060Z,0.37
2023-01-05T07:50:27.211Z,0.40
2023-01-05T07:53:41.648Z,0.50
2023-01-05T07:56:45.900Z,0.47
2023-01-05T07:59:47.750Z,0.47
2023-01-05T08:02:49.900Z,0.60
2023-01-05T08:05:51.735Z,0.50
2023-01-05T08:08:53.747Z,0.53
2023-01-05T08:11:55.669Z,0.40
2023-01-05T08:14:57.839Z,0.50
2023-01-05T08:17:59.669Z,0.40
2023-01-05T08:21:05.006Z,0.30
2023-01-05T08:24:07.396Z,0.50
2023-01-05T08:27:10.127Z,0.33
2023-01-05T08:30:12.703Z,0.50
2023-01-05T08:33:15.112Z,0.30
2023-01-05T08:36:20.874Z,0.40
2023-01-05T08:39:23.447Z,3.40
2023-01-05T08:42:25.580Z,0.70
2023-01-05T08:45:27.576Z,0.83
2023-01-05T08:48:29.544Z,0.30
2023-01-05T08:51:33.316Z,0.20
2023-01-05T08:54:36.041Z,0.37
2023-01-05T08:57:38.005Z,0.27
2023-01-05T09:00:40.104Z,0.23
2023-01-05T09:03:42.801Z,0.30
2023-01-05T09:06:44.795Z,0.20
2023-01-05T09:09:47.221Z,0.20
2023-01-05T09:12:49.598Z,0.10
2023-01-05T09:15:52.065Z,0.30
2023-01-05T09:18:53.981Z,0.10
2023-01-05T09:21:56.593Z,0.30
2023-01-05T09:24:58.485Z,0.40
2023-01-05T09:28:00.788Z,0.30
2023-01-05T09:31:12.070Z,0.53
2023-01-05T09:34:14.104Z,0.10
2023-01-05T09:37:16.358Z,0.20
2023-01-05T09:40:18.472Z,0.17
2023-01-05T09:43:27.841Z,0.27
2023-01-05T09:46:42.187Z,0.20
2023-01-05T09:49:45.381Z,0.20
2023-01-05T09:52:49.218Z,0.20
2023-01-05T09:55:51.106Z,0.30
2023-01-05T09:58:53.692Z,0.30
2023-01-05T10:01:59.268Z,0.20
2023-01-05T10:05:04.273Z,0.30
2023-01-05T10:08:17.826Z,0.33
2023-01-05T10:11:44.170Z,0.40
2023-01-05T10:15:01.111Z,0.10
2023-01-05T10:18:13.523Z,0.20
2023-01-05T10:21:48.622Z,0.70
2023-01-05T10:25:29.412Z,0.20
2023-01-05T10:29:09.824Z,0.40
2023-01-05T10:32:28.078Z,0.20
2023-01-05T10:36:05.305Z,0.20
2023-01-05T10:39:18.721Z,0.30
2023-01-05T10:42:35.073Z,0.63
2023-01-05T10:45:57.270Z,0.30
2023-01-05T10:49:00.225Z,0.37
2023-01-05T10:52:03.422Z,0.60
2023-01-05T10:55:14.730Z,0.40
2023-01-05T10:58:28.029Z,0.37
2023-01-05T11:01:31.137Z,0.87
2023-01-05T11:04:35.387Z,1.00
2023-01-05T11:08:15.226Z,0.90
2023-01-05T11:11:23.366Z,1.23
2023-01-05T11:14:25.747Z,0.40
2023-01-05T11:17:29.164Z,0.10
2023-01-05T11:20:31.308Z,0.33
2023-01-05T11:23:42.401Z,0.50
2023-01-05T11:26:52.682Z,0.13
2023-01-05T11:30:13.263Z,0.40
2023-01-05T11:33:25.407Z,0.50
2023-01-05T11:36:27.772Z,0.30
2023-01-05T11:39:48.298Z,0.20
2023-01-05T11:42:50.394Z,0.20
2023-01-05T11:45:59.155Z,0.20
2023-01-05T11:49:01.445Z,0.20
2023-01-05T11:52:03.509Z,0.20
2023-01-05T11:55:20.983Z,0.30
2023-01-05T11:58:45.603Z,0.27
2023-01-05T12:02:09.801Z,0.70
2023-01-05T12:05:20.091Z,0.20
2023-01-05T12:08:31.156Z,0.47
2023-01-05T12:12:00.563Z,0.13
2023-01-05T12:15:28.078Z,0.20
2023-01-05T12:18:41.800Z,0.30
2023-01-05T12:22:02.159Z,0.40
2023-01-05T12:25:23.151Z,0.20
2023-01-05T12:28:42.292Z,0.30
2023-01-05T12:34:00.410Z,0.30
2023-01-05T12:35:48.967Z,0.20
2023-01-05T12:39:09.364Z,0.37
2023-01-05T12:42:36.774Z,0.27
2023-01-05T12:54:56.075Z,1.00
2023-01-05T12:58:02.271Z,0.40
2023-01-05T13:01:07.132Z,0.33
2023-01-05T13:04:18.317Z,0.23
2023-01-05T13:07:29.869Z,0.20
2023-01-05T13:10:57.912Z,0.40
2023-01-05T13:14:28.160Z,0.40
2023-01-05T13:17:34.284Z,0.40
2023-01-05T13:20:41.528Z,0.40
2023-01-05T13:23:51.100Z,0.40
2023-01-05T13:26:53.687Z,0.37
2023-01-05T13:29:59.802Z,0.20
2023-01-05T13:33:26.832Z,0.37
2023-01-05T13:37:22.000Z,0.40
2023-01-05T13:40:36.805Z,0.73
2023-01-05T13:44:00.329Z,0.63
2023-01-05T13:47:27.246Z,0.60
2023-01-05T13:50:33.452Z,0.37
2023-01-05T13:53:38.775Z,0.40
2023-01-05T13:56:40.846Z,0.40
2023-01-05T13:59:55.025Z,0.60
2023-01-05T14:03:23.237Z,0.70
2023-01-05T14:06:28.769Z,0.70
2023-01-05T14:09:35.335Z,0.40
2023-01-05T14:12:50.121Z,0.67
2023-01-05T14:15:52.033Z,0.60
2023-01-05T14:19:12.102Z,0.50
2023-01-05T14:22:20.173Z,0.60
2023-01-05T14:25:46.814Z,0.27
2023-01-05T14:28:49.446Z,0.13
2023-01-05T14:31:51.428Z,0.30
2023-01-05T14:38:18.120Z,0.60
2023-01-05T14:41:26.792Z,0.50
2023-01-05T14:44:51.120Z,0.40
2023-01-05T14:47:58.775Z,0.70
2023-01-05T14:51:12.284Z,0.70
2023-01-05T14:54:14.211Z,0.50
2023-01-05T14:57:50.172Z,0.50
2023-01-05T15:00:58.050Z,0.50
2023-01-05T15:04:03.414Z,0.63
2023-01-05T15:07:17.191Z,1.00
2023-01-05T15:10:25.301Z,0.67
2023-01-05T15:13:36.163Z,1.50
2023-01-05T15:17:09.177Z,0.50
2023-01-05T15:20:22.948Z,1.07
2023-01-05T15:23:40.934Z,3.60
2023-01-05T15:27:13.528Z,3.30
2023-01-05T15:30:37.451Z,1.90
2023-01-05T15:33:56.872Z,1.50
2023-01-05T15:37:20.160Z,0.60
2023-01-05T15:40:22.057Z,0.63
2023-01-05T15:43:24.284Z,0.77
2023-01-05T15:46:31.597Z,0.40
2023-01-05T15:49:34.464Z,1.27
2023-01-05T15:52:39.609Z,0.97
2023-01-05T15:55:45.294Z,1.10
2023-01-05T15:58:47.313Z,1.60
2023-01-05T16:01:49.328Z,1.80
2023-01-05T16:05:13.342Z,2.20
2023-01-05T16:08:17.007Z,1.23
2023-01-05T16:11:35.606Z,0.70
2023-01-05T16:14:45.963Z,0.40
2023-01-05T16:17:54.562Z,7.17
2023-01-05T16:21:05.832Z,4.80
2023-01-05T16:24:15.025Z,2.80
2023-01-05T16:27:17.931Z,3.10
2023-01-05T16:30:32.324Z,2.27
2023-01-05T16:33:36.337Z,1.20
2023-01-05T16:36:39.439Z,1.13
2023-01-05T16:39:43.893Z,1.00
2023-01-05T16:42:50.540Z,1.30
2023-01-05T16:45:58.891Z,0.80
2023-01-05T16:49:00.832Z,1.00
2023-01-05T16:52:06.765Z,1.10
2023-01-05T16:55:37.334Z,1.70
2023-01-05T16:58:39.374Z,1.23
2023-01-05T17:01:44.909Z,1.30
2023-01-05T17:04:49.115Z,0.67
2023-01-05T17:08:04.472Z,0.83
2023-01-05T17:11:09.413Z,1.40
2023-01-05T17:14:12.302Z,2.47
2023-01-05T17:20:28.646Z,0.50
2023-01-05T17:23:34.943Z,0.47
2023-01-05T17:26:40.443Z,2.10
2023-01-05T17:29:43.927Z,5.00
2023-01-05T17:32:46.745Z,2.83
2023-01-05T17:35:49.340Z,1.20
2023-01-05T17:38:51.649Z,2.00
2023-01-05T17:41:53.625Z,3.27
2023-01-05T17:44:55.585Z,1.00
2023-01-05T17:47:58.019Z,0.67
2023-01-05T17:51:00.773Z,0.60
2023-01-05T17:54:03.272Z,0.60
2023-01-05T17:57:05.144Z,0.77
2023-01-05T18:00:11.301Z,0.90
2023-01-05T18:03:17.489Z,0.83
2023-01-05T18:06:19.609Z,1.23
2023-01-05T18:12:28.976Z,1.20
2023-01-05T18:15:30.909Z,1.10
2023-01-05T18:21:40.474Z,1.10
2023-01-05T18:24:43.165Z,3.07
2023-01-05T18:27:45.148Z,2.63
2023-01-05T18:30:47.413Z,1.30
2023-01-05T18:33:49.343Z,1.23
2023-01-05T18:36:58.415Z,1.30
2023-01-05T18:40:09.067Z,1.57
2023-01-05T18:43:10.946Z,2.10
2023-01-05T18:46:12.959Z,1.60
2023-01-05T18:49:15.775Z,1.23
2023-01-05T18:52:17.725Z,1.20
2023-01-05T18:55:19.669Z,1.43
2023-01-05T18:58:21.567Z,2.40
2023-01-05T19:01:24.846Z,2.80
2023-01-05T19:04:26.899Z,2.00
2023-01-05T19:07:30.197Z,1.33
2023-01-05T19:10:32.688Z,1.10
2023-01-05T19:13:34.916Z,1.60
2023-01-05T19:16:36.924Z,1.40
2023-01-05T19:19:38.931Z,2.03
2023-01-05T19:22:41.877Z,1.67
2023-01-05T19:25:43.783Z,1.60
2023-01-05T19:28:45.706Z,1.70
2023-01-05T19:31:50.726Z,1.30
2023-01-05T19:34:52.632Z,1.10
2023-01-05T19:37:54.713Z,1.97
2023-01-05T19:41:01.898Z,1.20
2023-01-05T19:44:04.262Z,2.90
2023-01-05T19:47:06.191Z,2.53
2023-01-05T19:50:10.066Z,1.53
2023-01-05T19:53:11.980Z,1.60
2023-01-05T19:56:16.387Z,1.10
2023-01-05T19:59:22.101Z,1.33
2023-01-05T20:02:24.166Z,1.20
2023-01-05T20:05:26.447Z,1.00
2023-01-05T20:08:28.544Z,0.93
2023-01-05T20:11:39.498Z,0.90
2023-01-05T20:14:43.243Z,1.27
2023-01-05T20:17:46.074Z,1.93
2023-01-05T20:20:48.492Z,2.60
2023-01-05T20:23:50.967Z,0.93
2023-01-05T20:26:55.685Z,0.90
2023-01-05T20:29:58.226Z,1.10
2023-01-05T20:33:00.239Z,0.70
2023-01-05T20:36:04.604Z,2.13
2023-01-05T20:39:07.911Z,1.90
2023-01-05T20:42:12.114Z,2.20
2023-01-05T20:45:15.362Z,2.40
2023-01-05T20:48:17.973Z,1.93
2023-01-05T20:51:21.853Z,2.00
2023-01-05T20:54:24.000Z,2.10
2023-01-05T20:57:27.807Z,2.30
2023-01-05T21:00:30.036Z,2.50
2023-01-05T21:03:31.995Z,2.40
2023-01-05T21:06:35.103Z,3.60
2023-01-05T21:09:37.213Z,3.43
2023-01-05T21:12:39.155Z,3.20
2023-01-05T21:15:42.406Z,1.20
2023-01-05T21:18:46.483Z,2.53
2023-01-05T21:21:55.171Z,1.93
2023-01-05T21:24:57.139Z,1.70
2023-01-05T21:27:59.445Z,1.60
2023-01-05T21:31:10.096Z,1.90
2023-01-05T21:34:13.398Z,1.57
2023-01-05T21:37:15.676Z,1.77
2023-01-05T21:40:17.695Z,1.60
2023-01-05T21:43:19.688Z,1.10
2023-01-05T21:46:21.599Z,0.87
2023-01-05T21:49:23.896Z,1.00
2023-01-05T21:52:44.169Z,0.90
2023-01-05T21:56:06.041Z,0.77
2023-01-05T21:59:08.804Z,0.57
2023-01-05T22:02:11.983Z,0.53
2023-01-05T22:05:14.072Z,0.43
2023-01-05T22:08:16.339Z,0.70
2023-01-05T22:11:18.240Z,0.60
2023-01-05T22:14:20.169Z,0.70
2023-01-05T22:17:22.196Z,1.13
2023-01-05T22:20:24.214Z,0.60
2023-01-05T22:23:27.928Z,1.10
2023-01-05T22:26:29.992Z,0.60
2023-01-05T22:29:32.961Z,0.83
2023-01-05T22:32:36.168Z,0.67
2023-01-05T22:35:40.920Z,0.63
2023-01-05T22:38:45.013Z,0.60
2023-01-05T22:41:49.400Z,0.50
2023-01-05T22:44:51.307Z,0.43
2023-01-05T22:47:54.666Z,0.50
2023-01-05T22:51:05.509Z,0.47
2023-01-05T22:54:07.841Z,0.40
2023-01-05T22:57:10.037Z,0.40
2023-01-05T23:00:13.083Z,0.53
2023-01-05T23:03:15.065Z,0.50
2023-01-05T23:06:17.871Z,0.53
2023-01-05T23:09:20.674Z,0.60
2023-01-05T23:12:23.103Z,0.37
2023-01-05T23:15:25.311Z,0.50
2023-01-05T23:18:27.985Z,0.43
2023-01-05T23:21:29.993Z,0.40
2023-01-05T23:24:31.987Z,0.30
2023-01-05T23:27:33.922Z,0.50
2023-01-05T23:30:35.968Z,0.57
2023-01-05T23:33:38.020Z,0.50
2023-01-05T23:36:40.589Z,0.47
2023-01-05T23:39:42.563Z,0.53
2023-01-05T23:42:46.286Z,0.60
2023-01-05T23:45:48.731Z,0.60
2023-01-05T23:48:51.744Z,0.60
2023-01-05T23:51:53.672Z,0.60
2023-01-05T23:54:55.596Z,0.67
2023-01-05T23:57:58.805Z,0.40
